Green Springs, Ohio
Current Conditions -  °F | °C
As of 8:13 PM on Tuesday 25 Nov 2014 (Local Time) from KPCW Reporting Station
Overcast Overcast  
Wind Chill: 27°   Ceiling: 2500
Heat Index: 34°   Visibility: 10mi
Dew Point: 25°   Wind: 8mph
Humidity: 70%   Direction: 270°W
Pressure: 30.19"   Gusts: NA
Location:  41.26°N, 83.05°W
Report Text: KPCW 260113Z AUTO 27007KT 10SM OVC025 01/M04 A3019 RMK AO2 $
Loading
Personal Weather Stations






























Interactive Weather Map New forecast layout! Learn more

10-Day Weather Forecast

Advertisements
Track Severe Weather on mobile